createdAt,value
2024-03-16T00:00:44.274Z,70.70
2024-03-16T00:02:46.227Z,70.50
2024-03-16T00:04:48.167Z,70.90
2024-03-16T00:06:50.166Z,71.00
2024-03-16T00:08:52.081Z,71.00
2024-03-16T00:10:53.976Z,71.30
2024-03-16T00:12:55.965Z,71.20
2024-03-16T00:14:57.994Z,71.00
2024-03-16T00:17:00.031Z,71.00
2024-03-16T00:19:02.266Z,71.00
2024-03-16T00:21:04.587Z,71.40
2024-03-16T00:23:06.402Z,71.40
2024-03-16T00:25:08.482Z,71.20
2024-03-16T00:27:10.420Z,71.20
2024-03-16T00:29:12.544Z,71.00
2024-03-16T00:31:14.721Z,71.00
2024-03-16T00:33:16.643Z,70.90
2024-03-16T00:35:19.150Z,70.90
2024-03-16T00:37:20.974Z,70.90
2024-03-16T00:39:24.946Z,70.90
2024-03-16T00:41:27.147Z,70.80
2024-03-16T00:43:29.277Z,70.90
2024-03-16T00:45:34.149Z,70.80
2024-03-16T00:47:36.199Z,71.00
2024-03-16T00:49:38.381Z,71.20
2024-03-16T00:51:42.354Z,71.20
2024-03-16T00:53:44.407Z,71.20
2024-03-16T00:55:46.220Z,71.30
2024-03-16T00:57:48.084Z,71.10
2024-03-16T00:59:50.074Z,71.00
2024-03-16T01:01:53.448Z,71.00
2024-03-16T01:03:55.911Z,71.20
2024-03-16T01:05:57.871Z,71.50
2024-03-16T01:07:59.731Z,71.80
2024-03-16T01:10:02.123Z,71.60
2024-03-16T01:12:04.235Z,71.40
2024-03-16T01:14:06.281Z,72.40
2024-03-16T01:16:08.259Z,71.60
2024-03-16T01:18:10.197Z,71.70
2024-03-16T01:20:12.564Z,71.70
2024-03-16T01:22:14.563Z,71.70
2024-03-16T01:24:16.452Z,71.80
2024-03-16T01:26:18.330Z,72.00
2024-03-16T01:28:20.170Z,72.10
2024-03-16T01:30:22.874Z,72.10
2024-03-16T01:32:24.701Z,72.00
2024-03-16T01:34:26.464Z,72.40
2024-03-16T01:36:28.410Z,71.80
2024-03-16T01:38:30.269Z,72.00
2024-03-16T01:40:34.922Z,72.20
2024-03-16T01:42:37.362Z,72.10
2024-03-16T01:44:39.244Z,72.10
2024-03-16T01:46:42.718Z,72.00
2024-03-16T01:48:44.859Z,72.00
2024-03-16T01:50:46.667Z,72.00
2024-03-16T01:52:49.547Z,71.90
2024-03-16T01:54:51.283Z,72.00
2024-03-16T01:56:53.087Z,72.10
2024-03-16T01:58:54.993Z,71.80
2024-03-16T02:00:57.174Z,71.80
2024-03-16T02:02:59.052Z,71.90
2024-03-16T02:05:01.565Z,71.90
2024-03-16T02:07:10.082Z,71.80
2024-03-16T02:09:12.309Z,71.90
2024-03-16T02:11:14.246Z,71.90
2024-03-16T02:13:16.299Z,72.10
2024-03-16T02:15:19.354Z,72.40
2024-03-16T02:17:21.536Z,73.10
2024-03-16T02:19:23.364Z,72.50
2024-03-16T02:21:25.258Z,72.40
2024-03-16T02:23:27.120Z,72.80
2024-03-16T02:25:29.968Z,73.10
2024-03-16T02:27:31.771Z,73.10
2024-03-16T02:29:36.434Z,73.10
2024-03-16T02:31:38.274Z,72.50
2024-03-16T02:33:40.095Z,72.70
2024-03-16T02:35:43.367Z,73.00
2024-03-16T02:37:45.204Z,73.10
2024-03-16T02:39:47.130Z,73.50
2024-03-16T02:41:48.973Z,73.60
2024-03-16T02:43:50.831Z,73.60
2024-03-16T02:45:53.512Z,73.70
2024-03-16T02:47:55.544Z,73.90
2024-03-16T02:49:57.475Z,74.10
2024-03-16T02:51:59.363Z,74.00
2024-03-16T02:54:01.260Z,73.80
2024-03-16T02:56:03.344Z,73.80
2024-03-16T02:58:05.900Z,74.00
2024-03-16T03:00:12.099Z,73.90
2024-03-16T03:02:14.003Z,73.80
2024-03-16T03:04:15.984Z,73.70
2024-03-16T03:06:19.079Z,73.80
2024-03-16T03:08:20.920Z,74.20
2024-03-16T03:10:22.959Z,74.30
2024-03-16T03:12:25.850Z,74.50
2024-03-16T03:14:27.715Z,74.70
2024-03-16T03:16:29.677Z,75.60
2024-03-16T03:18:31.608Z,74.50
2024-03-16T03:20:34.068Z,74.30
2024-03-16T03:22:36.638Z,74.30
2024-03-16T03:24:38.427Z,74.40
2024-03-16T03:26:40.412Z,74.50
2024-03-16T03:28:42.363Z,74.80
2024-03-16T03:30:44.493Z,74.80
2024-03-16T03:32:46.357Z,74.80
2024-03-16T03:34:48.143Z,74.50
2024-03-16T03:36:50.337Z,74.30
2024-03-16T03:38:52.196Z,74.40
2024-03-16T03:40:54.018Z,74.40
2024-03-16T03:42:57.193Z,74.60
2024-03-16T03:45:12.087Z,74.60
2024-03-16T03:47:14.041Z,74.50
2024-03-16T03:49:27.289Z,74.60
2024-03-16T03:51:29.380Z,74.40
2024-03-16T03:53:31.311Z,74.10
2024-03-16T03:55:33.404Z,74.10
2024-03-16T03:57:35.194Z,74.10
2024-03-16T03:59:37.039Z,74.20
2024-03-16T04:01:38.994Z,74.50
2024-03-16T04:03:40.827Z,74.50
2024-03-16T04:05:44.294Z,74.50
2024-03-16T04:07:46.171Z,74.40
2024-03-16T04:09:50.222Z,74.50
2024-03-16T04:11:52.181Z,74.70
2024-03-16T04:13:54.010Z,74.70
2024-03-16T04:15:55.871Z,75.40
2024-03-16T04:17:57.853Z,74.50
2024-03-16T04:19:59.740Z,74.60
2024-03-16T04:22:01.604Z,74.40
2024-03-16T04:24:03.717Z,74.30
2024-03-16T04:26:05.528Z,74.50
2024-03-16T04:28:07.493Z,74.50
2024-03-16T04:30:10.566Z,74.40
2024-03-16T04:32:12.353Z,74.50
2024-03-16T04:34:14.140Z,74.50
2024-03-16T04:36:16.942Z,74.20
2024-03-16T04:38:18.938Z,74.40
2024-03-16T04:40:20.884Z,74.80
2024-03-16T04:42:23.223Z,74.00
2024-03-16T04:44:25.050Z,73.80
2024-03-16T04:46:29.993Z,73.90
2024-03-16T04:48:31.986Z,73.70
2024-03-16T04:50:34.732Z,73.70
2024-03-16T04:52:36.521Z,74.10
2024-03-16T04:54:38.394Z,75.00
2024-03-16T04:56:40.184Z,74.10
2024-03-16T04:58:42.009Z,74.20
2024-03-16T05:00:43.850Z,74.00
2024-03-16T05:02:45.683Z,74.00
2024-03-16T05:04:49.689Z,74.10
2024-03-16T05:06:51.552Z,74.10
2024-03-16T05:08:53.678Z,74.20
2024-03-16T05:10:55.680Z,74.50
2024-03-16T05:12:57.699Z,74.50
2024-03-16T05:14:59.901Z,74.90
2024-03-16T05:17:01.773Z,74.80
2024-03-16T05:19:04.842Z,74.60
2024-03-16T05:21:07.706Z,74.60
2024-03-16T05:23:09.579Z,74.70
2024-03-16T05:25:11.788Z,75.00
2024-03-16T05:27:16.245Z,74.50
2024-03-16T05:29:18.136Z,74.50
2024-03-16T05:31:20.017Z,74.40
2024-03-16T05:33:21.908Z,74.30
2024-03-16T05:35:29.048Z,74.60
2024-03-16T05:37:31.694Z,75.00
2024-03-16T05:39:34.169Z,74.80
2024-03-16T05:41:36.036Z,74.70
2024-03-16T05:43:39.284Z,74.70
2024-03-16T05:45:41.249Z,74.70
2024-03-16T05:47:44.427Z,74.90
2024-03-16T05:49:46.316Z,75.80
2024-03-16T05:51:48.950Z,75.20
2024-03-16T05:53:52.519Z,75.10
2024-03-16T05:55:54.954Z,75.20
2024-03-16T05:57:56.861Z,75.40
2024-03-16T05:59:58.737Z,75.40
2024-03-16T06:02:00.735Z,75.10
2024-03-16T06:04:02.561Z,75.10
2024-03-16T06:06:04.719Z,75.10
2024-03-16T06:08:07.049Z,75.30
2024-03-16T06:10:11.778Z,75.20
2024-03-16T06:12:13.882Z,74.80
2024-03-16T06:14:15.806Z,74.70
2024-03-16T06:16:17.842Z,74.80
2024-03-16T06:18:19.988Z,74.80
2024-03-16T06:20:25.045Z,75.00
2024-03-16T06:22:27.272Z,74.80
2024-03-16T06:24:29.209Z,74.90
2024-03-16T06:26:35.778Z,74.70
2024-03-16T06:28:39.189Z,74.80
2024-03-16T06:30:41.043Z,74.80
2024-03-16T06:33:05.888Z,75.00
2024-03-16T06:35:07.881Z,75.10
2024-03-16T06:37:09.748Z,75.10
2024-03-16T06:39:12.097Z,75.20
2024-03-16T06:41:14.289Z,75.20
2024-03-16T06:43:16.526Z,75.00
2024-03-16T06:45:18.438Z,74.90
2024-03-16T06:47:20.223Z,75.10
2024-03-16T06:49:22.079Z,75.30
2024-03-16T06:51:24.191Z,75.40
2024-03-16T06:53:26.013Z,75.50
2024-03-16T06:55:27.970Z,75.40
2024-03-16T06:57:29.799Z,75.50
2024-03-16T06:59:31.848Z,75.70
2024-03-16T07:01:33.883Z,75.60
2024-03-16T07:03:36.127Z,75.30
2024-03-16T07:05:38.539Z,75.20
2024-03-16T07:07:41.249Z,75.50
2024-03-16T07:09:43.129Z,75.70
2024-03-16T07:11:48.146Z,75.50
2024-03-16T07:13:50.610Z,75.50
2024-03-16T07:15:52.627Z,75.50
2024-03-16T07:17:54.659Z,75.60
2024-03-16T07:19:56.662Z,75.80
2024-03-16T07:22:00.534Z,75.60
2024-03-16T07:24:02.908Z,75.50
2024-03-16T07:26:04.773Z,75.60
2024-03-16T07:28:09.298Z,75.50
2024-03-16T07:30:11.720Z,75.70
2024-03-16T07:32:14.095Z,75.50
2024-03-16T07:34:16.511Z,75.10
2024-03-16T07:36:18.465Z,75.00
2024-03-16T07:38:20.773Z,75.10
2024-03-16T07:40:23.183Z,75.10
2024-03-16T07:42:25.347Z,75.40
2024-03-16T07:44:27.317Z,75.40
2024-03-16T07:46:29.934Z,75.50
2024-03-16T07:48:31.836Z,75.40
2024-03-16T07:50:34.016Z,75.50
2024-03-16T07:52:35.944Z,75.70
2024-03-16T07:54:37.913Z,75.70
2024-03-16T07:56:40.981Z,75.70
2024-03-16T07:58:42.825Z,75.90
2024-03-16T08:00:44.783Z,76.10
2024-03-16T08:02:46.642Z,76.10
2024-03-16T08:04:48.585Z,76.20
2024-03-16T08:06:50.566Z,76.20
2024-03-16T08:08:52.605Z,76.20
2024-03-16T08:10:55.902Z,76.20
2024-03-16T08:12:58.979Z,76.20
2024-03-16T08:15:00.897Z,76.30
2024-03-16T08:17:06.014Z,76.30
2024-03-16T08:19:08.099Z,76.20
2024-03-16T08:21:10.049Z,76.20
2024-03-16T08:23:11.974Z,76.30
2024-03-16T08:25:14.003Z,76.40
2024-03-16T08:27:16.238Z,76.40
2024-03-16T08:29:18.514Z,76.40
2024-03-16T08:31:20.491Z,76.30
2024-03-16T08:33:22.440Z,76.20
2024-03-16T08:35:24.468Z,76.20
2024-03-16T08:37:26.625Z,76.10
2024-03-16T08:39:28.674Z,76.10
2024-03-16T08:41:30.592Z,76.10
2024-03-16T08:43:32.494Z,76.20
2024-03-16T08:45:36.545Z,76.10
2024-03-16T08:47:39.225Z,76.10
2024-03-16T08:49:41.247Z,76.30
2024-03-16T08:51:43.285Z,76.50
2024-03-16T08:53:45.163Z,76.70
2024-03-16T08:55:47.042Z,76.80
2024-03-16T08:57:48.988Z,76.70
2024-03-16T08:59:52.460Z,76.40
2024-03-16T09:01:54.460Z,76.20
2024-03-16T09:03:56.342Z,76.30
2024-03-16T09:05:58.303Z,76.60
2024-03-16T09:08:00.284Z,76.90
2024-03-16T09:10:02.997Z,77.00
2024-03-16T09:12:05.798Z,77.70
2024-03-16T09:14:07.884Z,76.80
2024-03-16T09:16:09.792Z,77.30
2024-03-16T09:18:13.225Z,76.70
2024-03-16T09:20:15.209Z,76.80
2024-03-16T09:22:17.417Z,76.90
2024-03-16T09:24:19.721Z,76.90
2024-03-16T09:26:22.002Z,76.80
2024-03-16T09:28:24.098Z,76.90
2024-03-16T09:30:26.068Z,76.80
2024-03-16T09:32:28.279Z,76.60
2024-03-16T09:34:30.282Z,76.60
2024-03-16T09:36:32.900Z,76.60
2024-03-16T09:38:35.891Z,76.40
2024-03-16T09:40:46.908Z,76.50
